createdAt,value
2018-11-04T00:01:24.625Z,24.17
2018-11-04T00:03:53.610Z,20.63
2018-11-04T00:06:22.758Z,20.77
2018-11-04T00:08:51.850Z,20.57
2018-11-04T00:11:20.995Z,21.77
2018-11-04T00:13:50.133Z,19.87
2018-11-04T00:16:19.399Z,19.70
2018-11-04T00:18:48.390Z,18.90
2018-11-04T00:21:18.082Z,21.00
2018-11-04T00:23:47.345Z,20.23
2018-11-04T00:26:16.403Z,21.87
2018-11-04T00:28:45.426Z,18.13
2018-11-04T00:31:14.577Z,21.97
2018-11-04T00:33:43.726Z,22.77
2018-11-04T00:36:12.463Z,21.20
2018-11-04T00:38:41.390Z,22.27
2018-11-04T00:41:10.565Z,24.90
2018-11-04T00:43:39.591Z,26.90
2018-11-04T00:46:08.794Z,27.50
2018-11-04T00:48:38.035Z,28.17
2018-11-04T00:51:07.487Z,26.17
2018-11-04T00:53:36.482Z,28.77
2018-11-04T00:56:05.805Z,31.23
2018-11-04T00:58:34.718Z,27.43
2018-11-04T01:01:03.983Z,27.83
2018-11-04T01:03:33.218Z,30.57
2018-11-04T01:06:02.519Z,29.77
2018-11-04T01:08:31.355Z,31.47
2018-11-04T01:11:00.269Z,36.27
2018-11-04T01:13:29.184Z,31.10
2018-11-04T01:15:58.326Z,30.53
2018-11-04T01:18:27.286Z,34.33
2018-11-04T01:20:56.546Z,33.53
2018-11-04T01:23:25.582Z,34.53
2018-11-04T01:25:54.762Z,35.07
2018-11-04T01:28:23.500Z,32.67
2018-11-04T01:30:52.578Z,26.60
2018-11-04T01:33:21.758Z,29.40
2018-11-04T01:35:50.832Z,32.90
2018-11-04T01:38:19.701Z,28.93
2018-11-04T01:40:48.897Z,33.87
2018-11-04T01:43:17.738Z,36.23
2018-11-04T01:45:46.635Z,35.27
2018-11-04T01:48:15.659Z,34.80
2018-11-04T01:50:44.933Z,38.80
2018-11-04T01:53:14.078Z,31.83
2018-11-04T01:55:43.161Z,35.70
2018-11-04T01:58:12.274Z,38.57
2018-11-04T02:00:41.372Z,41.00
2018-11-04T02:03:10.476Z,39.33
2018-11-04T02:05:39.590Z,39.40
2018-11-04T02:08:08.691Z,39.93
2018-11-04T02:10:37.855Z,45.03
2018-11-04T02:13:07.043Z,46.13
2018-11-04T02:15:36.146Z,47.27
2018-11-04T02:18:04.974Z,41.10
2018-11-04T02:20:34.109Z,38.90
2018-11-04T02:23:02.929Z,35.47
2018-11-04T02:25:32.066Z,35.07
2018-11-04T02:28:01.195Z,35.47
2018-11-04T02:30:30.299Z,40.33
2018-11-04T02:32:59.106Z,40.47
2018-11-04T02:35:28.019Z,43.83
2018-11-04T02:37:57.290Z,38.73
2018-11-04T02:40:26.309Z,33.53
2018-11-04T02:42:55.458Z,36.00
2018-11-04T02:45:24.266Z,36.93
2018-11-04T02:47:53.124Z,34.97
2018-11-04T02:50:22.143Z,34.63
2018-11-04T02:52:51.400Z,34.83
2018-11-04T02:55:20.522Z,35.30
2018-11-04T02:57:49.568Z,35.10
2018-11-04T03:00:18.711Z,37.17
2018-11-04T03:02:47.709Z,38.13
2018-11-04T03:05:16.650Z,37.47
2018-11-04T03:07:45.733Z,39.17
2018-11-04T03:10:15.295Z,38.47
2018-11-04T03:12:44.464Z,37.17
2018-11-04T03:15:13.675Z,40.23
2018-11-04T03:17:42.866Z,39.87
2018-11-04T03:20:11.983Z,39.90
2018-11-04T03:22:40.856Z,40.77
2018-11-04T03:25:09.899Z,40.83
2018-11-04T03:27:39.158Z,43.80
2018-11-04T03:30:09.070Z,39.50
2018-11-04T03:32:38.074Z,37.63
2018-11-04T03:35:07.262Z,40.07
2018-11-04T03:37:36.355Z,33.70
2018-11-04T03:40:06.403Z,34.33
2018-11-04T03:42:35.462Z,38.27
2018-11-04T03:45:04.694Z,33.17
2018-11-04T03:47:33.811Z,33.03
2018-11-04T03:50:02.644Z,30.87
2018-11-04T03:52:31.719Z,30.97
2018-11-04T03:55:00.834Z,32.60
2018-11-04T03:57:29.938Z,33.77
2018-11-04T03:59:59.265Z,31.90
2018-11-04T04:02:28.290Z,31.97
2018-11-04T04:04:57.426Z,29.50
2018-11-04T04:07:26.766Z,30.83
2018-11-04T04:09:56.036Z,29.83
2018-11-04T04:12:25.266Z,28.07
2018-11-04T04:14:54.389Z,30.80
2018-11-04T04:17:23.653Z,28.73
2018-11-04T04:19:52.780Z,29.43
2018-11-04T04:22:21.900Z,29.43
2018-11-04T04:24:51.258Z,28.87
2018-11-04T04:27:20.338Z,28.47
2018-11-04T04:29:49.491Z,26.30
2018-11-04T04:32:18.581Z,27.83
2018-11-04T04:34:47.719Z,26.27
2018-11-04T04:37:16.538Z,26.40
2018-11-04T04:39:45.596Z,23.97
2018-11-04T04:42:14.806Z,25.17
2018-11-04T04:44:43.995Z,25.33
2018-11-04T04:47:13.101Z,22.30
2018-11-04T04:49:41.994Z,23.87
2018-11-04T04:52:11.086Z,24.43
2018-11-04T04:54:40.151Z,25.57
2018-11-04T04:57:09.478Z,23.20
2018-11-04T04:59:38.565Z,23.57
2018-11-04T05:02:07.882Z,27.07
2018-11-04T05:04:37.107Z,30.07
2018-11-04T05:07:06.272Z,34.73
2018-11-04T05:09:35.500Z,25.90
2018-11-04T05:12:04.490Z,30.80
2018-11-04T05:14:33.503Z,31.53
2018-11-04T05:17:02.815Z,27.77
2018-11-04T05:19:31.951Z,29.20
2018-11-04T05:22:00.996Z,24.77
2018-11-04T05:24:30.191Z,45.70
2018-11-04T05:26:59.486Z,44.60
2018-11-04T05:29:28.590Z,41.03
2018-11-04T05:31:57.566Z,32.27
2018-11-04T05:34:26.581Z,30.83
2018-11-04T05:36:55.751Z,27.00
2018-11-04T05:39:25.046Z,28.43
2018-11-04T05:41:54.056Z,29.80
2018-11-04T05:44:23.244Z,29.63
2018-11-04T05:46:52.071Z,26.20
2018-11-04T05:49:21.165Z,30.47
2018-11-04T05:51:50.178Z,26.17
2018-11-04T05:54:19.386Z,41.43
2018-11-04T05:56:48.087Z,39.83
2018-11-04T05:59:17.146Z,34.17
2018-11-04T06:01:46.342Z,27.37
2018-11-04T06:04:15.634Z,26.07
2018-11-04T06:06:44.741Z,25.33
2018-11-04T06:09:13.924Z,21.93
2018-11-04T06:11:43.042Z,20.87
2018-11-04T06:14:12.267Z,21.03
2018-11-04T06:16:41.413Z,23.97
2018-11-04T06:19:10.530Z,24.50
2018-11-04T06:21:39.539Z,23.87
2018-11-04T06:24:08.350Z,23.33
2018-11-04T06:26:37.562Z,22.03
2018-11-04T06:29:06.758Z,24.23
2018-11-04T06:31:35.915Z,23.57
2018-11-04T06:34:04.918Z,34.63
2018-11-04T06:36:34.137Z,36.53
2018-11-04T06:39:03.362Z,39.13
2018-11-04T06:41:32.520Z,52.37
2018-11-04T06:44:01.483Z,62.27
2018-11-04T06:46:30.618Z,54.43
2018-11-04T06:48:59.615Z,49.53
2018-11-04T06:51:28.437Z,41.83
2018-11-04T06:53:57.258Z,40.43
2018-11-04T06:56:26.471Z,37.57
2018-11-04T06:58:55.688Z,36.97
2018-11-04T07:01:24.827Z,38.17
2018-11-04T07:04:04.497Z,43.43
2018-11-04T07:06:33.618Z,40.60
2018-11-04T07:09:02.885Z,32.47
2018-11-04T07:11:31.845Z,36.23
2018-11-04T07:14:00.723Z,38.63
2018-11-04T07:16:29.877Z,40.67
2018-11-04T07:18:58.930Z,44.33
2018-11-04T07:21:28.087Z,42.57
2018-11-04T07:23:57.214Z,44.97
2018-11-04T07:26:26.286Z,44.27
2018-11-04T07:28:55.075Z,39.77
2018-11-04T07:31:24.091Z,39.93
2018-11-04T07:33:52.963Z,35.23
2018-11-04T07:36:22.262Z,48.10
2018-11-04T07:38:51.397Z,50.90
2018-11-04T07:41:20.978Z,41.27
2018-11-04T07:43:50.386Z,47.77
2018-11-04T07:46:19.730Z,49.17
2018-11-04T07:48:49.386Z,46.73
2018-11-04T07:51:18.793Z,42.93
2018-11-04T07:53:48.061Z,39.73
2018-11-04T07:56:17.146Z,37.33
2018-11-04T07:58:46.372Z,31.53
2018-11-04T08:01:15.379Z,33.53
2018-11-04T08:03:44.475Z,31.90
2018-11-04T08:06:13.562Z,33.93
2018-11-04T08:08:42.815Z,37.83
2018-11-04T08:11:11.835Z,31.53
2018-11-04T08:13:41.116Z,26.13
2018-11-04T08:16:10.355Z,29.23
2018-11-04T08:18:39.361Z,27.10
2018-11-04T08:21:08.214Z,24.67
2018-11-04T08:23:37.478Z,26.63
2018-11-04T08:26:06.497Z,34.43
2018-11-04T08:28:35.522Z,24.37
2018-11-04T08:31:04.427Z,23.13
2018-11-04T08:33:33.510Z,23.10
2018-11-04T08:36:02.741Z,24.00
2018-11-04T08:38:32.176Z,23.93
2018-11-04T08:41:01.092Z,20.43
2018-11-04T08:43:30.106Z,24.33
2018-11-04T08:45:58.872Z,35.17
2018-11-04T08:48:27.937Z,23.57
2018-11-04T08:50:57.201Z,21.67
2018-11-04T08:53:26.404Z,21.57
2018-11-04T08:55:55.483Z,34.73
2018-11-04T08:58:24.635Z,26.43
2018-11-04T09:00:53.775Z,29.00
2018-11-04T09:03:22.650Z,21.93
2018-11-04T09:05:51.826Z,18.63
2018-11-04T09:08:20.759Z,20.07
2018-11-04T09:10:50.127Z,19.73
2018-11-04T09:13:19.273Z,15.90
2018-11-04T09:15:48.220Z,14.73
2018-11-04T09:18:17.324Z,15.47
2018-11-04T09:20:46.454Z,16.70
2018-11-04T09:23:15.392Z,13.93
2018-11-04T09:25:44.754Z,12.50
2018-11-04T09:28:14.015Z,14.07
2018-11-04T09:30:43.151Z,14.03
2018-11-04T09:33:12.345Z,16.37
2018-11-04T09:35:41.626Z,17.13
2018-11-04T09:38:10.363Z,18.03
2018-11-04T09:40:39.326Z,18.73
2018-11-04T09:43:08.430Z,16.97
2018-11-04T09:45:37.539Z,16.50
2018-11-04T09:48:07.018Z,17.97
2018-11-04T09:50:35.850Z,19.00
2018-11-04T09:53:04.718Z,19.27
2018-11-04T09:55:33.826Z,17.07
2018-11-04T09:58:02.654Z,16.50
2018-11-04T10:00:31.601Z,14.07
2018-11-04T10:03:00.360Z,16.33
2018-11-04T10:05:29.196Z,13.37
2018-11-04T10:07:58.239Z,13.00
2018-11-04T10:10:27.398Z,13.67
2018-11-04T10:12:56.337Z,14.67
2018-11-04T10:15:25.611Z,13.90
2018-11-04T10:17:54.484Z,15.37
2018-11-04T10:20:23.963Z,19.77
2018-11-04T10:22:52.593Z,15.40
2018-11-04T10:25:21.748Z,13.17
2018-11-04T10:27:50.795Z,13.50
2018-11-04T10:30:19.934Z,15.50
2018-11-04T10:32:48.993Z,13.63
2018-11-04T10:35:18.261Z,13.03
2018-11-04T10:37:47.279Z,13.93
2018-11-04T10:40:16.413Z,16.00
2018-11-04T10:42:45.506Z,13.10
2018-11-04T10:45:14.631Z,15.50
2018-11-04T10:47:43.810Z,13.77
2018-11-04T10:50:13.408Z,17.53
2018-11-04T10:52:42.375Z,13.87
2018-11-04T10:55:11.849Z,15.83
2018-11-04T10:57:40.802Z,17.50
2018-11-04T11:00:16.050Z,13.27
2018-11-04T11:02:45.980Z,17.07
2018-11-04T11:05:14.774Z,15.50
2018-11-04T11:07:43.778Z,12.77
2018-11-04T11:10:12.867Z,16.47
2018-11-04T11:12:42.052Z,13.43
2018-11-04T11:15:11.586Z,12.63
2018-11-04T11:17:40.978Z,10.87
2018-11-04T11:20:10.801Z,11.80
2018-11-04T11:22:40.163Z,11.20
2018-11-04T11:25:09.607Z,48.87
2018-11-04T11:27:38.580Z,23.73
2018-11-04T11:30:07.709Z,13.67
2018-11-04T11:32:36.851Z,13.30
2018-11-04T11:35:06.478Z,14.60
2018-11-04T11:37:35.790Z,9.90
2018-11-04T11:40:05.027Z,10.38
2018-11-04T11:42:34.194Z,10.20
2018-11-04T11:45:03.011Z,12.75
2018-11-04T11:47:32.275Z,10.90
2018-11-04T11:50:01.188Z,9.75
2018-11-04T11:52:30.376Z,8.35
2018-11-04T11:54:59.528Z,8.28
2018-11-04T11:57:28.623Z,7.87
2018-11-04T11:59:57.611Z,8.90
2018-11-04T12:02:26.865Z,9.03
2018-11-04T12:04:56.062Z,9.10
2018-11-04T12:07:25.302Z,8.30
2018-11-04T12:09:54.255Z,7.35
2018-11-04T12:12:23.002Z,9.73
2018-11-04T12:14:52.206Z,7.42
2018-11-04T12:17:21.321Z,7.70
2018-11-04T12:19:50.462Z,7.65
2018-11-04T12:22:19.570Z,8.00
2018-11-04T12:24:48.431Z,9.90
2018-11-04T12:27:17.458Z,10.70
2018-11-04T12:29:46.553Z,9.45
2018-11-04T12:32:15.611Z,8.13
2018-11-04T12:34:44.866Z,11.57
2018-11-04T12:37:14.112Z,11.57
2018-11-04T12:39:43.143Z,12.82
2018-11-04T12:42:12.200Z,8.60
2018-11-04T12:44:41.309Z,9.05
2018-11-04T12:47:10.502Z,8.63
2018-11-04T12:49:39.297Z,9.20
2018-11-04T12:52:08.359Z,7.83
2018-11-04T12:54:37.278Z,8.63
2018-11-04T12:57:06.939Z,8.57
2018-11-04T12:59:36.046Z,9.80
2018-11-04T13:02:05.310Z,11.10
2018-11-04T13:04:34.230Z,11.80
2018-11-04T13:07:03.119Z,19.70
2018-11-04T13:09:31.912Z,9.50
2018-11-04T13:12:00.894Z,10.67
2018-11-04T13:14:30.154Z,8.97
2018-11-04T13:16:59.391Z,8.47
2018-11-04T13:19:28.485Z,8.03
2018-11-04T13:21:57.217Z,9.60
2018-11-04T13:24:26.035Z,9.10
2018-11-04T13:26:55.143Z,9.20
2018-11-04T13:29:24.193Z,10.33
2018-11-04T13:31:53.237Z,9.47
2018-11-04T13:34:22.283Z,8.43
2018-11-04T13:36:51.435Z,9.20
2018-11-04T13:39:20.523Z,12.30
2018-11-04T13:41:49.378Z,12.03
2018-11-04T13:44:18.306Z,8.80
2018-11-04T13:46:47.518Z,12.70
2018-11-04T13:49:16.670Z,10.13
2018-11-04T13:51:45.771Z,14.73
2018-11-04T13:54:14.954Z,15.23
2018-11-04T13:56:43.806Z,11.63
2018-11-04T13:59:12.634Z,16.30
2018-11-04T14:01:41.821Z,20.00
2018-11-04T14:04:11.019Z,11.60
2018-11-04T14:06:40.249Z,12.90
2018-11-04T14:09:09.862Z,13.90
2018-11-04T14:11:39.094Z,9.83
2018-11-04T14:14:08.090Z,13.50
2018-11-04T14:16:36.917Z,10.47
2018-11-04T14:19:06.207Z,20.27
2018-11-04T14:21:36.110Z,24.40
2018-11-04T14:24:05.140Z,31.53
2018-11-04T14:26:34.274Z,18.70
2018-11-04T14:29:03.211Z,20.53
2018-11-04T14:31:32.331Z,17.77
2018-11-04T14:34:01.572Z,16.67
2018-11-04T14:36:30.545Z,13.20
2018-11-04T14:38:59.563Z,42.33
2018-11-04T14:41:28.566Z,49.93
2018-11-04T14:43:57.906Z,24.60
2018-11-04T14:46:26.971Z,16.80
2018-11-04T14:48:56.198Z,13.27
2018-11-04T14:51:25.502Z,10.80
2018-11-04T14:53:54.556Z,11.90
2018-11-04T14:56:28.294Z,13.43
2018-11-04T14:58:57.804Z,17.07
2018-11-04T15:01:27.311Z,16.50
2018-11-04T15:03:56.216Z,18.60
2018-11-04T15:06:25.907Z,13.53
2018-11-04T15:08:55.011Z,48.87
2018-11-04T15:11:24.159Z,21.27
2018-11-04T15:13:53.355Z,39.73
2018-11-04T15:16:22.034Z,22.77
2018-11-04T15:18:51.289Z,28.87
2018-11-04T15:21:20.062Z,15.93
2018-11-04T15:23:49.304Z,21.00
2018-11-04T15:26:18.464Z,14.67
2018-11-04T15:28:48.395Z,13.73
2018-11-04T15:31:17.431Z,34.17
2018-11-04T15:33:46.270Z,43.70
2018-11-04T15:36:15.402Z,60.40
2018-11-04T15:38:44.407Z,164.47
2018-11-04T15:41:13.503Z,216.43
2018-11-04T15:43:42.440Z,195.40
2018-11-04T15:46:11.602Z,131.73
2018-11-04T15:48:40.556Z,149.97
2018-11-04T15:51:09.563Z,155.17
2018-11-04T15:53:38.766Z,137.10
2018-11-04T15:56:08.046Z,107.60
2018-11-04T15:58:37.288Z,98.97
2018-11-04T16:01:06.485Z,23.60
2018-11-04T16:03:35.638Z,16.07
2018-11-04T16:06:04.700Z,14.10
2018-11-04T16:08:33.577Z,13.27
2018-11-04T16:11:02.411Z,11.37
2018-11-04T16:13:31.431Z,12.33
2018-11-04T16:16:00.654Z,13.90
2018-11-04T16:18:29.551Z,29.23
2018-11-04T16:20:58.714Z,21.17
2018-11-04T16:23:27.810Z,34.87
2018-11-04T16:25:57.099Z,43.37
2018-11-04T16:28:26.291Z,24.93
2018-11-04T16:30:55.594Z,16.00
2018-11-04T16:33:24.802Z,29.93
2018-11-04T16:35:54.090Z,16.90
2018-11-04T16:38:23.212Z,19.43
2018-11-04T16:40:52.262Z,30.40
2018-11-04T16:43:21.584Z,18.63
2018-11-04T16:45:50.862Z,26.50
2018-11-04T16:48:20.015Z,16.57
2018-11-04T16:50:49.018Z,20.97
2018-11-04T16:53:17.998Z,27.40
2018-11-04T16:55:47.203Z,23.97
2018-11-04T16:58:16.341Z,17.73
2018-11-04T17:00:45.346Z,18.67
2018-11-04T17:03:15.051Z,20.53
2018-11-04T17:05:44.716Z,26.83
2018-11-04T17:08:13.758Z,24.90
2018-11-04T17:10:43.823Z,32.90
2018-11-04T17:13:13.079Z,43.67
2018-11-04T17:15:43.045Z,27.23
2018-11-04T17:18:12.727Z,33.37
2018-11-04T17:20:43.190Z,27.60
2018-11-04T17:23:12.224Z,23.17
2018-11-04T17:25:41.523Z,25.93
2018-11-04T17:28:10.710Z,16.13
2018-11-04T17:30:39.793Z,19.33
2018-11-04T17:33:08.592Z,18.37
2018-11-04T17:35:37.670Z,16.87
2018-11-04T17:38:06.874Z,15.47
2018-11-04T17:40:36.426Z,12.83
2018-11-04T17:43:06.040Z,12.73
2018-11-04T17:45:35.367Z,12.03
2018-11-04T17:48:04.469Z,11.07
2018-11-04T17:50:34.217Z,12.53
2018-11-04T17:53:03.374Z,13.47
2018-11-04T17:55:32.313Z,14.93
2018-11-04T17:58:01.814Z,32.90
2018-11-04T18:00:32.218Z,32.67
2018-11-04T18:03:03.224Z,34.37
2018-11-04T18:05:32.966Z,21.43
2018-11-04T18:08:02.121Z,16.80
2018-11-04T18:10:31.699Z,18.37
2018-11-04T18:13:00.868Z,13.27
2018-11-04T18:15:29.882Z,20.67
2018-11-04T18:17:58.826Z,20.50
2018-11-04T18:20:28.827Z,25.23
2018-11-04T18:22:57.842Z,16.07
2018-11-04T18:25:26.886Z,26.67
2018-11-04T18:27:55.950Z,79.07
2018-11-04T18:30:25.072Z,108.40
2018-11-04T18:32:53.990Z,119.60
2018-11-04T18:35:22.961Z,29.33
2018-11-04T18:37:52.091Z,44.60
2018-11-04T18:40:21.221Z,57.17
2018-11-04T18:42:50.493Z,31.97
2018-11-04T18:45:19.831Z,23.03
2018-11-04T18:47:49.164Z,21.87
2018-11-04T18:50:18.280Z,19.13
2018-11-04T18:52:47.501Z,12.10
2018-11-04T18:55:16.989Z,13.43
2018-11-04T18:57:46.209Z,9.53
2018-11-04T19:00:17.419Z,23.83
2018-11-04T19:02:47.194Z,26.17
2018-11-04T19:05:16.525Z,20.70
2018-11-04T19:07:45.690Z,19.60
2018-11-04T19:10:16.805Z,22.53
2018-11-04T19:12:45.668Z,19.03
2018-11-04T19:15:14.841Z,14.53
2018-11-04T19:17:43.671Z,14.97
2018-11-04T19:20:14.093Z,18.77
2018-11-04T19:22:43.238Z,23.87
2018-11-04T19:25:13.561Z,26.30
2018-11-04T19:27:42.674Z,27.00
2018-11-04T19:30:17.534Z,24.80
2018-11-04T19:32:47.006Z,22.20
2018-11-04T19:35:17.482Z,40.93
2018-11-04T19:37:46.613Z,45.07
2018-11-04T19:40:16.409Z,33.80
2018-11-04T19:42:45.721Z,25.20
2018-11-04T19:45:15.652Z,20.43
2018-11-04T19:47:44.803Z,18.23
2018-11-04T19:50:14.324Z,18.87
2018-11-04T19:52:43.829Z,21.10
2018-11-04T19:55:13.402Z,19.87
2018-11-04T19:57:42.262Z,20.93
2018-11-04T20:00:12.543Z,25.93
2018-11-04T20:02:41.791Z,22.60
2018-11-04T20:05:11.865Z,18.97
2018-11-04T20:07:40.629Z,19.43
2018-11-04T20:10:11.190Z,17.40
2018-11-04T20:12:45.266Z,16.47
2018-11-04T20:15:14.443Z,14.20
2018-11-04T20:17:43.956Z,12.47
2018-11-04T20:20:17.796Z,14.73
2018-11-04T20:22:46.864Z,15.47
2018-11-04T20:25:20.843Z,17.03
2018-11-04T20:27:49.707Z,17.57
2018-11-04T20:30:18.835Z,15.93
2018-11-04T20:32:52.980Z,19.70
2018-11-04T20:35:21.807Z,21.30
2018-11-04T20:37:50.686Z,22.47
2018-11-04T20:40:24.888Z,22.40
2018-11-04T20:42:53.773Z,20.50
2018-11-04T20:45:22.820Z,18.40
2018-11-04T20:47:56.958Z,26.57
2018-11-04T20:50:31.054Z,38.67
2018-11-04T20:53:00.355Z,33.93
2018-11-04T20:55:34.534Z,39.43
2018-11-04T20:58:03.870Z,38.93
2018-11-04T21:00:33.114Z,36.77
2018-11-04T21:03:02.267Z,49.60
2018-11-04T21:05:31.344Z,57.87
2018-11-04T21:08:00.363Z,46.13
2018-11-04T21:10:29.530Z,32.53
2018-11-04T21:12:58.525Z,17.43
2018-11-04T21:15:27.634Z,14.97
2018-11-04T21:17:56.455Z,25.77
2018-11-04T21:20:25.787Z,21.67
2018-11-04T21:22:54.913Z,40.83
2018-11-04T21:25:24.361Z,53.47
2018-11-04T21:27:53.416Z,49.80
2018-11-04T21:30:22.277Z,31.30
2018-11-04T21:32:51.511Z,41.07
2018-11-04T21:35:20.650Z,43.10
2018-11-04T21:37:49.836Z,19.47
2018-11-04T21:40:18.956Z,14.10
2018-11-04T21:42:48.041Z,10.60
2018-11-04T21:45:17.049Z,11.53
2018-11-04T21:47:45.850Z,7.37
2018-11-04T21:50:15.054Z,10.23
2018-11-04T21:52:44.277Z,10.70
2018-11-04T21:55:14.043Z,10.23
2018-11-04T21:57:44.122Z,12.37
2018-11-04T22:00:14.658Z,13.50
2018-11-04T22:02:44.166Z,8.83
2018-11-04T22:05:13.435Z,9.70
2018-11-04T22:07:43.522Z,10.30
2018-11-04T22:10:14.149Z,9.83
2018-11-04T22:12:43.499Z,11.23
2018-11-04T22:15:12.499Z,9.40
2018-11-04T22:17:42.307Z,11.33
2018-11-04T22:20:12.830Z,8.93
2018-11-04T22:22:42.080Z,10.07
2018-11-04T22:25:11.692Z,8.57
2018-11-04T22:27:40.806Z,8.57
2018-11-04T22:30:11.290Z,11.10
2018-11-04T22:32:40.521Z,11.53
2018-11-04T22:35:11.103Z,10.97
2018-11-04T22:37:40.378Z,10.97
2018-11-04T22:40:11.080Z,10.80
2018-11-04T22:42:41.094Z,10.80
2018-11-04T22:45:11.498Z,12.30
2018-11-04T22:47:41.570Z,11.53
2018-11-04T22:50:13.138Z,11.93
2018-11-04T22:52:42.502Z,11.37
2018-11-04T22:55:12.403Z,11.83
2018-11-04T22:57:41.373Z,11.87
2018-11-04T23:00:16.554Z,13.33
2018-11-04T23:02:46.490Z,12.50
2018-11-04T23:05:20.622Z,13.80
2018-11-04T23:07:49.707Z,17.40
2018-11-04T23:10:18.865Z,18.27
2018-11-04T23:12:47.688Z,19.37
2018-11-04T23:15:16.827Z,20.90
2018-11-04T23:17:45.800Z,15.67
2018-11-04T23:20:14.961Z,22.17
2018-11-04T23:22:44.114Z,28.30
2018-11-04T23:25:14.169Z,31.40
2018-11-04T23:27:43.629Z,24.73
2018-11-04T23:30:15.067Z,23.50
2018-11-04T23:32:44.735Z,16.17
2018-11-04T23:35:14.026Z,15.20
2018-11-04T23:37:44.253Z,15.20
2018-11-04T23:40:13.373Z,14.90
2018-11-04T23:42:42.600Z,15.13
2018-11-04T23:45:13.321Z,16.87
2018-11-04T23:47:42.426Z,12.73
2018-11-04T23:50:13.965Z,15.00
2018-11-04T23:52:43.535Z,15.07
2018-11-04T23:55:13.590Z,14.73
2018-11-04T23:57:42.843Z,15.77
